createdAt,value
2018-09-02T00:00:32.189Z,7.00
2018-09-02T00:03:01.449Z,8.57
2018-09-02T00:05:29.938Z,7.03
2018-09-02T00:07:59.048Z,7.10
2018-09-02T00:10:27.913Z,8.40
2018-09-02T00:12:56.403Z,7.90
2018-09-02T00:15:25.180Z,8.40
2018-09-02T00:17:53.620Z,6.87
2018-09-02T00:20:22.116Z,7.90
2018-09-02T00:22:50.553Z,6.77
2018-09-02T00:25:19.229Z,8.47
2018-09-02T00:27:47.686Z,7.70
2018-09-02T00:30:16.386Z,7.27
2018-09-02T00:32:44.849Z,8.13
2018-09-02T00:35:13.327Z,5.53
2018-09-02T00:37:41.800Z,7.70
2018-09-02T00:40:10.783Z,7.87
2018-09-02T00:42:39.289Z,8.50
2018-09-02T00:45:08.408Z,7.47
2018-09-02T00:47:36.988Z,7.30
2018-09-02T00:50:06.457Z,7.30
2018-09-02T00:52:34.906Z,6.67
2018-09-02T00:55:03.633Z,7.30
2018-09-02T00:57:32.097Z,7.80
2018-09-02T01:00:00.581Z,7.27
2018-09-02T01:02:29.053Z,7.47
2018-09-02T01:04:57.505Z,8.47
2018-09-02T01:07:26.261Z,7.00
2018-09-02T01:09:54.767Z,7.87
2018-09-02T01:12:23.277Z,6.00
2018-09-02T01:14:51.759Z,7.40
2018-09-02T01:17:20.593Z,7.60
2018-09-02T01:19:49.064Z,8.50
2018-09-02T01:22:17.575Z,6.73
2018-09-02T01:24:46.066Z,6.97
2018-09-02T01:27:14.632Z,6.93
2018-09-02T01:29:43.143Z,7.03
2018-09-02T01:32:11.850Z,7.30
2018-09-02T01:34:40.366Z,6.47
2018-09-02T01:37:08.875Z,6.73
2018-09-02T01:39:37.368Z,5.80
2018-09-02T01:42:06.004Z,6.67
2018-09-02T01:44:34.481Z,5.30
2018-09-02T01:47:03.210Z,6.90
2018-09-02T01:49:31.715Z,5.67
2018-09-02T01:52:00.214Z,5.57
2018-09-02T01:54:28.655Z,5.50
2018-09-02T01:56:57.111Z,6.20
2018-09-02T01:59:25.635Z,7.10
2018-09-02T02:01:54.150Z,6.30
2018-09-02T02:04:22.683Z,6.73
2018-09-02T02:06:51.166Z,6.67
2018-09-02T02:09:19.615Z,7.63
2018-09-02T02:11:48.154Z,6.50
2018-09-02T02:14:16.638Z,6.87
2018-09-02T02:16:45.167Z,6.17
2018-09-02T02:19:13.643Z,5.70
2018-09-02T02:21:42.111Z,7.07
2018-09-02T02:24:10.619Z,6.50
2018-09-02T02:26:39.118Z,6.93
2018-09-02T02:29:07.616Z,6.27
2018-09-02T02:31:36.107Z,6.70
2018-09-02T02:34:04.579Z,6.23
2018-09-02T02:36:33.078Z,6.50
2018-09-02T02:39:01.556Z,5.80
2018-09-02T02:41:30.058Z,5.37
2018-09-02T02:43:58.531Z,5.17
2018-09-02T02:46:27.036Z,6.30
2018-09-02T02:48:55.530Z,5.83
2018-09-02T02:51:24.014Z,6.00
2018-09-02T02:53:52.546Z,4.60
2018-09-02T02:56:21.023Z,6.67
2018-09-02T02:58:49.596Z,5.93
2018-09-02T03:01:18.339Z,5.77
2018-09-02T03:03:46.843Z,6.30
2018-09-02T03:06:15.499Z,7.87
2018-09-02T03:08:43.971Z,7.23
2018-09-02T03:11:12.586Z,6.77
2018-09-02T03:13:41.067Z,7.50
2018-09-02T03:16:10.114Z,6.57
2018-09-02T03:18:39.037Z,6.83
2018-09-02T03:21:07.493Z,6.73
2018-09-02T03:23:36.023Z,7.77
2018-09-02T03:26:04.559Z,5.53
2018-09-02T03:28:33.015Z,7.83
2018-09-02T03:31:01.518Z,7.03
2018-09-02T03:33:29.992Z,6.87
2018-09-02T03:35:58.486Z,8.93
2018-09-02T03:38:27.037Z,7.50
2018-09-02T03:40:55.515Z,7.87
2018-09-02T03:43:24.007Z,8.37
2018-09-02T03:45:52.519Z,6.60
2018-09-02T03:48:21.407Z,7.60
2018-09-02T03:50:49.854Z,7.33
2018-09-02T03:53:18.342Z,9.00
2018-09-02T03:55:46.838Z,8.53
2018-09-02T03:58:15.292Z,8.93
2018-09-02T04:00:44.127Z,9.30
2018-09-02T04:03:12.626Z,8.73
2018-09-02T04:05:41.132Z,8.80
2018-09-02T04:08:09.596Z,8.77
2018-09-02T04:10:38.102Z,9.83
2018-09-02T04:13:06.645Z,9.73
2018-09-02T04:15:35.139Z,10.47
2018-09-02T04:18:03.644Z,9.40
2018-09-02T04:20:34.718Z,11.10
2018-09-02T04:23:04.028Z,9.80
2018-09-02T04:25:33.298Z,10.30
2018-09-02T04:28:01.781Z,9.37
2018-09-02T04:30:30.485Z,7.70
2018-09-02T04:32:59.000Z,10.40
2018-09-02T04:35:27.499Z,10.00
2018-09-02T04:37:55.958Z,8.27
2018-09-02T04:40:24.451Z,8.60
2018-09-02T04:42:52.939Z,9.13
2018-09-02T04:45:21.515Z,9.87
2018-09-02T04:47:49.994Z,10.60
2018-09-02T04:50:19.653Z,6.53
2018-09-02T04:52:48.150Z,9.23
2018-09-02T04:55:16.615Z,8.53
2018-09-02T04:57:45.716Z,9.73
2018-09-02T05:00:14.268Z,9.50
2018-09-02T05:02:42.735Z,10.43
2018-09-02T05:05:11.275Z,11.53
2018-09-02T05:07:39.780Z,10.60
2018-09-02T05:10:08.271Z,10.53
2018-09-02T05:12:36.774Z,10.03
2018-09-02T05:15:05.339Z,10.73
2018-09-02T05:17:34.411Z,9.33
2018-09-02T05:20:03.236Z,11.13
2018-09-02T05:22:31.759Z,11.20
2018-09-02T05:25:00.256Z,8.63
2018-09-02T05:27:28.828Z,10.97
2018-09-02T05:29:57.299Z,8.07
2018-09-02T05:32:26.085Z,9.97
2018-09-02T05:34:54.895Z,8.93
2018-09-02T05:37:23.354Z,8.97
2018-09-02T05:39:51.815Z,9.33
2018-09-02T05:42:20.602Z,11.50
2018-09-02T05:44:49.318Z,11.33
2018-09-02T05:47:17.796Z,8.80
2018-09-02T05:49:46.303Z,8.30
2018-09-02T05:52:14.797Z,9.23
2018-09-02T05:54:43.273Z,10.73
2018-09-02T05:57:11.779Z,11.20
2018-09-02T05:59:40.262Z,11.43
2018-09-02T06:02:08.866Z,10.27
2018-09-02T06:04:37.341Z,11.20
2018-09-02T06:07:05.852Z,11.57
2018-09-02T06:09:34.340Z,11.60
2018-09-02T06:12:02.823Z,11.47
2018-09-02T06:14:31.474Z,11.03
2018-09-02T06:17:00.022Z,10.63
2018-09-02T06:19:28.494Z,9.80
2018-09-02T06:21:56.990Z,11.80
2018-09-02T06:24:25.711Z,12.20
2018-09-02T06:26:54.198Z,11.87
2018-09-02T06:29:22.671Z,11.67
2018-09-02T06:31:51.168Z,11.43
2018-09-02T06:34:19.623Z,10.73
2018-09-02T06:36:48.155Z,11.50
2018-09-02T06:39:17.550Z,13.00
2018-09-02T06:41:46.020Z,11.37
2018-09-02T06:44:14.535Z,9.33
2018-09-02T06:46:43.015Z,11.77
2018-09-02T06:49:11.487Z,10.20
2018-09-02T06:51:39.982Z,10.30
2018-09-02T06:54:08.529Z,11.33
2018-09-02T06:56:37.068Z,11.43
2018-09-02T06:59:05.596Z,11.67
2018-09-02T07:01:34.115Z,11.83
2018-09-02T07:04:02.605Z,11.20
2018-09-02T07:06:31.126Z,8.70
2018-09-02T07:08:59.602Z,10.57
2018-09-02T07:11:28.099Z,10.13
2018-09-02T07:13:56.597Z,11.33
2018-09-02T07:16:25.097Z,10.47
2018-09-02T07:18:53.591Z,11.30
2018-09-02T07:21:22.121Z,11.43
2018-09-02T07:23:50.609Z,10.17
2018-09-02T07:26:19.088Z,11.93
2018-09-02T07:28:47.587Z,10.83
2018-09-02T07:31:16.178Z,11.17
2018-09-02T07:33:44.686Z,10.43
2018-09-02T07:36:13.188Z,10.73
2018-09-02T07:38:41.990Z,11.90
2018-09-02T07:41:10.511Z,11.97
2018-09-02T07:43:39.049Z,11.73
2018-09-02T07:46:07.831Z,12.30
2018-09-02T07:48:36.409Z,11.07
2018-09-02T07:51:05.084Z,10.90
2018-09-02T07:53:33.574Z,10.73
2018-09-02T07:56:02.076Z,12.30
2018-09-02T07:58:30.600Z,11.77
2018-09-02T08:00:59.282Z,12.83
2018-09-02T08:03:27.794Z,11.33
2018-09-02T08:05:56.271Z,11.70
2018-09-02T08:08:24.772Z,9.03
2018-09-02T08:10:53.278Z,10.43
2018-09-02T08:13:21.758Z,10.17
2018-09-02T08:15:50.276Z,8.70
2018-09-02T08:18:18.806Z,12.10
2018-09-02T08:20:47.310Z,12.20
2018-09-02T08:23:15.850Z,10.20
2018-09-02T08:25:44.347Z,10.30
2018-09-02T08:28:12.880Z,9.83
2018-09-02T08:30:41.344Z,11.60
2018-09-02T08:33:09.894Z,14.07
2018-09-02T08:35:38.311Z,11.23
2018-09-02T08:38:06.812Z,13.93
2018-09-02T08:40:35.284Z,12.67
2018-09-02T08:43:03.823Z,12.50
2018-09-02T08:45:32.294Z,13.70
2018-09-02T08:48:00.786Z,7.83
2018-09-02T08:50:29.342Z,14.00
2018-09-02T08:52:57.821Z,13.40
2018-09-02T08:55:26.313Z,8.80
2018-09-02T08:57:54.868Z,12.00
2018-09-02T09:00:23.464Z,13.07
2018-09-02T09:02:52.591Z,9.93
2018-09-02T09:05:21.115Z,11.80
2018-09-02T09:07:49.849Z,11.20
2018-09-02T09:10:18.211Z,12.20
2018-09-02T09:12:46.739Z,16.47
2018-09-02T09:15:15.249Z,12.80
2018-09-02T09:17:43.735Z,10.07
2018-09-02T09:20:12.207Z,11.63
2018-09-02T09:22:40.758Z,12.80
2018-09-02T09:25:10.603Z,10.13
2018-09-02T09:27:39.496Z,11.63
2018-09-02T09:30:09.029Z,9.80
2018-09-02T09:32:37.720Z,10.40
2018-09-02T09:35:06.549Z,12.73
2018-09-02T09:37:35.031Z,10.30
2018-09-02T09:40:03.541Z,9.60
2018-09-02T09:42:32.070Z,14.20
2018-09-02T09:45:00.614Z,11.57
2018-09-02T09:47:29.106Z,20.37
2018-09-02T09:49:57.608Z,17.93
2018-09-02T09:52:26.184Z,13.17
2018-09-02T09:54:54.671Z,12.10
2018-09-02T09:57:23.134Z,16.23
2018-09-02T09:59:52.036Z,17.00
2018-09-02T10:02:20.547Z,14.63
2018-09-02T10:04:49.041Z,13.53
2018-09-02T10:07:17.536Z,12.30
2018-09-02T10:09:46.047Z,15.07
2018-09-02T10:12:14.572Z,17.80
2018-09-02T10:14:43.055Z,15.27
2018-09-02T10:17:11.557Z,12.83
2018-09-02T10:19:40.383Z,12.80
2018-09-02T10:22:08.875Z,13.43
2018-09-02T10:24:37.383Z,14.00
2018-09-02T10:27:05.913Z,10.80
2018-09-02T10:29:34.402Z,15.50
2018-09-02T10:32:02.917Z,15.07
2018-09-02T10:34:31.411Z,16.23
2018-09-02T10:36:59.928Z,13.43
2018-09-02T10:39:28.407Z,10.90
2018-09-02T10:41:56.945Z,14.47
2018-09-02T10:44:25.492Z,15.70
2018-09-02T10:46:53.961Z,11.13
2018-09-02T10:49:22.527Z,13.37
2018-09-02T10:51:51.025Z,13.53
2018-09-02T10:54:19.536Z,15.83
2018-09-02T10:56:48.523Z,14.73
2018-09-02T10:59:17.023Z,16.03
2018-09-02T11:01:45.518Z,15.27
2018-09-02T11:04:14.003Z,11.00
2018-09-02T11:06:42.506Z,12.43
2018-09-02T11:09:11.932Z,16.10
2018-09-02T11:11:40.470Z,14.87
2018-09-02T11:14:09.696Z,17.67
2018-09-02T11:16:38.546Z,17.87
2018-09-02T11:19:07.367Z,18.23
2018-09-02T11:21:35.964Z,16.63
2018-09-02T11:24:04.736Z,12.73
2018-09-02T11:26:33.219Z,17.00
2018-09-02T11:29:02.178Z,18.67
2018-09-02T11:31:30.698Z,18.20
2018-09-02T11:33:59.205Z,17.53
2018-09-02T11:36:28.015Z,18.70
2018-09-02T11:38:56.514Z,16.63
2018-09-02T11:41:24.991Z,15.90
2018-09-02T11:43:53.473Z,20.87
2018-09-02T11:46:21.971Z,21.43
2018-09-02T11:48:50.483Z,21.60
2018-09-02T11:51:18.952Z,17.83
2018-09-02T11:53:47.466Z,20.07
2018-09-02T11:56:15.936Z,13.63
2018-09-02T11:58:44.446Z,16.63
2018-09-02T12:01:12.932Z,20.37
2018-09-02T12:03:41.424Z,23.60
2018-09-02T12:06:09.922Z,16.17
2018-09-02T12:08:38.414Z,12.63
2018-09-02T12:11:06.926Z,20.53
2018-09-02T12:13:35.426Z,15.67
2018-09-02T12:16:03.954Z,18.50
2018-09-02T12:18:32.509Z,19.20
2018-09-02T12:21:01.014Z,15.80
2018-09-02T12:23:29.479Z,17.73
2018-09-02T12:25:58.235Z,15.37
2018-09-02T12:28:26.720Z,14.57
2018-09-02T12:30:55.187Z,18.73
2018-09-02T12:33:23.698Z,12.53
2018-09-02T12:35:52.169Z,17.17
2018-09-02T12:38:20.929Z,15.07
2018-09-02T12:40:49.423Z,15.20
2018-09-02T12:43:17.942Z,18.97
2018-09-02T12:45:46.501Z,19.10
2018-09-02T12:48:15.057Z,15.23
2018-09-02T12:50:43.530Z,18.40
2018-09-02T12:53:12.038Z,16.67
2018-09-02T12:55:40.550Z,18.00
2018-09-02T12:58:09.054Z,17.80
2018-09-02T13:00:37.542Z,17.27
2018-09-02T13:03:06.344Z,16.70
2018-09-02T13:05:34.916Z,18.43
2018-09-02T13:08:03.418Z,17.33
2018-09-02T13:10:31.927Z,19.17
2018-09-02T13:13:00.686Z,13.63
2018-09-02T13:15:29.168Z,18.57
2018-09-02T13:17:57.691Z,14.90
2018-09-02T13:20:26.189Z,14.97
2018-09-02T13:22:54.702Z,16.47
2018-09-02T13:25:23.188Z,15.70
2018-09-02T13:27:51.679Z,13.83
2018-09-02T13:30:20.171Z,14.47
2018-09-02T13:32:48.654Z,14.13
2018-09-02T13:35:17.157Z,16.50
2018-09-02T13:37:45.651Z,13.27
2018-09-02T13:40:14.539Z,11.53
2018-09-02T13:42:43.023Z,14.27
2018-09-02T13:45:11.543Z,13.13
2018-09-02T13:47:40.090Z,13.47
2018-09-02T13:50:08.631Z,15.03
2018-09-02T13:52:37.113Z,14.57
2018-09-02T13:55:06.378Z,13.63
2018-09-02T13:57:34.863Z,16.43
2018-09-02T14:00:03.450Z,15.10
2018-09-02T14:02:31.951Z,12.87
2018-09-02T14:05:00.440Z,14.40
2018-09-02T14:07:28.931Z,12.00
2018-09-02T14:09:57.680Z,12.47
2018-09-02T14:12:26.486Z,16.33
2018-09-02T14:14:55.371Z,17.60
2018-09-02T14:17:23.848Z,15.00
2018-09-02T14:19:52.367Z,12.93
2018-09-02T14:22:20.839Z,10.80
2018-09-02T14:24:49.324Z,9.80
2018-09-02T14:27:17.823Z,14.87
2018-09-02T14:29:46.363Z,13.90
2018-09-02T14:32:14.871Z,10.13
2018-09-02T14:34:43.377Z,10.07
2018-09-02T14:37:12.079Z,12.47
2018-09-02T14:39:40.600Z,15.30
2018-09-02T14:42:09.111Z,12.70
2018-09-02T14:44:37.624Z,14.90
2018-09-02T14:47:06.310Z,13.40
2018-09-02T14:49:34.781Z,10.13
2018-09-02T14:52:03.272Z,12.97
2018-09-02T14:54:32.214Z,16.17
2018-09-02T14:57:00.705Z,15.47
2018-09-02T14:59:29.202Z,12.40
2018-09-02T15:01:57.706Z,14.33
2018-09-02T15:04:26.211Z,15.10
2018-09-02T15:06:54.687Z,14.33
2018-09-02T15:09:23.191Z,9.37
2018-09-02T15:11:52.026Z,13.23
2018-09-02T15:14:20.797Z,14.93
2018-09-02T15:16:49.635Z,13.60
2018-09-02T15:19:18.137Z,15.40
2018-09-02T15:21:46.740Z,15.47
2018-09-02T15:24:15.222Z,14.57
2018-09-02T15:26:43.683Z,13.23
2018-09-02T15:29:12.199Z,13.40
2018-09-02T15:31:40.723Z,10.27
2018-09-02T15:34:09.216Z,12.37
2018-09-02T15:36:37.987Z,13.77
2018-09-02T15:39:08.285Z,13.77
2018-09-02T15:41:36.779Z,13.60
2018-09-02T15:44:05.382Z,13.23
2018-09-02T15:46:33.812Z,12.83
2018-09-02T15:49:02.361Z,12.87
2018-09-02T15:51:30.897Z,8.60
2018-09-02T15:53:59.419Z,17.20
2018-09-02T15:56:29.426Z,22.33
2018-09-02T15:58:58.163Z,15.23
2018-09-02T16:01:26.778Z,14.50
2018-09-02T16:03:55.283Z,10.50
2018-09-02T16:06:24.157Z,11.63
2018-09-02T16:08:52.655Z,11.60
2018-09-02T16:11:21.173Z,11.77
2018-09-02T16:13:49.686Z,12.23
2018-09-02T16:16:18.250Z,10.07
2018-09-02T16:18:46.763Z,12.37
2018-09-02T16:21:15.307Z,12.17
2018-09-02T16:23:43.827Z,10.13
2018-09-02T16:26:12.371Z,11.50
2018-09-02T16:28:40.959Z,14.17
2018-09-02T16:31:09.433Z,10.90
2018-09-02T16:33:37.945Z,10.67
2018-09-02T16:36:06.520Z,12.20
2018-09-02T16:38:34.987Z,12.50
2018-09-02T16:41:03.442Z,11.17
2018-09-02T16:43:31.980Z,11.33
2018-09-02T16:46:00.475Z,12.83
2018-09-02T16:48:29.045Z,11.30
2018-09-02T16:50:57.560Z,11.77
2018-09-02T16:53:26.059Z,12.80
2018-09-02T16:55:54.555Z,13.93
2018-09-02T16:58:23.112Z,11.83
2018-09-02T17:00:51.586Z,9.73
2018-09-02T17:03:20.679Z,11.27
2018-09-02T17:05:49.184Z,12.20
2018-09-02T17:08:17.669Z,11.73
2018-09-02T17:10:46.496Z,7.83
2018-09-02T17:13:15.051Z,10.87
2018-09-02T17:15:43.556Z,11.00
2018-09-02T17:18:12.092Z,8.17
2018-09-02T17:20:42.899Z,12.27
2018-09-02T17:23:12.268Z,13.60
2018-09-02T17:25:41.831Z,11.83
2018-09-02T17:28:10.292Z,12.83
2018-09-02T17:30:39.038Z,12.20
2018-09-02T17:33:08.677Z,7.97
2018-09-02T17:35:37.171Z,9.97
2018-09-02T17:38:06.182Z,13.50
2018-09-02T17:40:34.667Z,13.80
2018-09-02T17:43:03.389Z,14.67
2018-09-02T17:45:32.087Z,11.17
2018-09-02T17:48:00.611Z,10.10
2018-09-02T17:50:29.087Z,13.07
2018-09-02T17:52:57.594Z,13.80
2018-09-02T17:55:26.479Z,11.97
2018-09-02T17:57:54.992Z,8.90
2018-09-02T18:00:27.689Z,13.73
2018-09-02T18:02:56.675Z,14.30
2018-09-02T18:05:25.183Z,12.50
2018-09-02T18:07:54.020Z,12.63
2018-09-02T18:10:22.512Z,13.00
2018-09-02T18:12:51.002Z,12.20
2018-09-02T18:15:19.500Z,13.97
2018-09-02T18:17:48.240Z,13.47
2018-09-02T18:20:16.912Z,14.13
2018-09-02T18:22:45.427Z,13.73
2018-09-02T18:25:13.919Z,14.07
2018-09-02T18:27:44.990Z,13.47
2018-09-02T18:30:13.515Z,12.70
2018-09-02T18:32:42.135Z,10.03
2018-09-02T18:35:10.514Z,15.13
2018-09-02T18:37:39.028Z,16.57
2018-09-02T18:40:07.744Z,11.30
2018-09-02T18:42:36.268Z,13.63
2018-09-02T18:45:05.071Z,10.67
2018-09-02T18:47:33.570Z,15.20
2018-09-02T18:50:02.076Z,14.07
2018-09-02T18:52:30.560Z,13.60
2018-09-02T18:54:59.056Z,17.13
2018-09-02T18:57:27.585Z,12.50
2018-09-02T18:59:56.069Z,16.37
2018-09-02T19:02:24.654Z,16.07
2018-09-02T19:04:53.151Z,12.50
2018-09-02T19:07:21.663Z,15.57
2018-09-02T19:09:50.155Z,11.50
2018-09-02T19:12:18.683Z,15.23
2018-09-02T19:14:47.206Z,15.77
2018-09-02T19:17:15.705Z,11.50
2018-09-02T19:19:44.213Z,10.93
2018-09-02T19:22:12.735Z,12.63
2018-09-02T19:24:41.235Z,15.17
2018-09-02T19:27:09.741Z,13.83
2018-09-02T19:29:38.349Z,13.83
2018-09-02T19:32:07.143Z,13.37
2018-09-02T19:34:35.619Z,13.73
2018-09-02T19:37:04.142Z,13.53
2018-09-02T19:39:32.612Z,13.47
2018-09-02T19:42:01.117Z,14.03
2018-09-02T19:44:29.637Z,13.53
2018-09-02T19:46:58.298Z,14.03
2018-09-02T19:49:26.675Z,13.73
2018-09-02T19:51:55.167Z,11.53
2018-09-02T19:54:23.670Z,14.37
2018-09-02T19:56:52.183Z,11.63
2018-09-02T19:59:20.682Z,12.97
2018-09-02T20:01:49.158Z,13.73
2018-09-02T20:04:17.658Z,13.80
2018-09-02T20:06:46.169Z,13.77
2018-09-02T20:09:15.056Z,13.23
2018-09-02T20:11:43.548Z,8.27
2018-09-02T20:14:12.798Z,13.90
2018-09-02T20:16:41.293Z,10.70
2018-09-02T20:19:10.146Z,13.77
2018-09-02T20:21:38.626Z,11.83
2018-09-02T20:24:07.402Z,12.60
2018-09-02T20:26:36.708Z,11.23
2018-09-02T20:29:05.341Z,13.17
2018-09-02T20:31:33.801Z,11.83
2018-09-02T20:34:02.254Z,13.93
2018-09-02T20:36:30.841Z,12.53
2018-09-02T20:38:59.325Z,9.67
2018-09-02T20:41:27.774Z,13.60
2018-09-02T20:43:56.294Z,11.60
2018-09-02T20:46:24.840Z,11.30
2018-09-02T20:48:53.366Z,11.77
2018-09-02T20:51:21.879Z,9.27
2018-09-02T20:53:50.350Z,12.47
2018-09-02T20:56:18.806Z,13.53
2018-09-02T20:58:47.315Z,10.73
2018-09-02T21:01:15.746Z,11.60
2018-09-02T21:03:44.261Z,10.33
2018-09-02T21:06:12.752Z,11.70
2018-09-02T21:08:41.213Z,11.13
2018-09-02T21:11:09.694Z,12.93
2018-09-02T21:13:38.171Z,8.40
2018-09-02T21:16:06.631Z,11.60
2018-09-02T21:18:35.096Z,9.20
2018-09-02T21:21:03.638Z,11.57
2018-09-02T21:23:32.581Z,12.10
2018-09-02T21:26:01.014Z,10.83
2018-09-02T21:28:29.800Z,11.07
2018-09-02T21:30:58.292Z,9.30
2018-09-02T21:33:27.030Z,11.67
2018-09-02T21:35:55.497Z,11.83
2018-09-02T21:38:24.145Z,14.37
2018-09-02T21:40:52.612Z,14.43
2018-09-02T21:43:21.054Z,7.73
2018-09-02T21:45:49.537Z,13.70
2018-09-02T21:48:18.008Z,11.37
2018-09-02T21:50:46.502Z,10.17
2018-09-02T21:53:15.005Z,14.20
2018-09-02T21:55:43.505Z,13.47
2018-09-02T21:58:11.974Z,10.33
2018-09-02T22:00:41.749Z,12.33
2018-09-02T22:03:10.211Z,13.73
2018-09-02T22:05:38.718Z,11.57
2018-09-02T22:08:07.189Z,9.93
2018-09-02T22:10:35.661Z,10.53
2018-09-02T22:13:04.121Z,10.97
2018-09-02T22:15:32.597Z,8.47
2018-09-02T22:18:01.041Z,10.23
2018-09-02T22:20:29.502Z,13.10
2018-09-02T22:22:57.942Z,12.90
2018-09-02T22:25:26.407Z,11.07
2018-09-02T22:27:55.104Z,14.43
2018-09-02T22:30:23.549Z,15.10
2018-09-02T22:32:51.982Z,12.30
2018-09-02T22:35:20.461Z,9.63
2018-09-02T22:37:48.921Z,14.43
2018-09-02T22:40:17.368Z,13.30
2018-09-02T22:42:45.853Z,8.43
2018-09-02T22:45:14.275Z,11.87
2018-09-02T22:47:42.793Z,10.30
2018-09-02T22:50:11.270Z,11.97
2018-09-02T22:52:39.705Z,12.83
2018-09-02T22:55:08.205Z,13.70
2018-09-02T22:57:36.955Z,13.47
2018-09-02T23:00:05.870Z,14.63
2018-09-02T23:02:34.541Z,14.77
2018-09-02T23:05:03.225Z,12.97
2018-09-02T23:07:31.658Z,14.63
2018-09-02T23:10:00.126Z,12.83
2018-09-02T23:12:28.611Z,15.57
2018-09-02T23:14:57.050Z,16.30
2018-09-02T23:17:25.517Z,12.37
2018-09-02T23:19:54.006Z,14.37
2018-09-02T23:22:22.481Z,13.80
2018-09-02T23:24:51.100Z,12.53
2018-09-02T23:27:19.871Z,11.97
2018-09-02T23:29:48.305Z,14.47
2018-09-02T23:32:16.778Z,12.57
2018-09-02T23:34:45.514Z,14.00
2018-09-02T23:37:14.073Z,16.33
2018-09-02T23:39:42.574Z,14.53
2018-09-02T23:42:11.028Z,11.20
2018-09-02T23:44:39.526Z,16.20
2018-09-02T23:47:08.005Z,15.50
2018-09-02T23:49:36.452Z,12.77
2018-09-02T23:52:05.161Z,13.00
2018-09-02T23:54:33.619Z,13.80
2018-09-02T23:57:02.057Z,16.13
2018-09-02T23:59:30.507Z,14.43
